»·PEaware :: N1MR CYNE-CYAV

N1MR :: CYNE-CYAV

FLIGHT INFORMATION

Flight Status: Arrived
Operator: Privately registered:
United States
More flights under this callsign
Pilot: Gavin B. (14546)
Aircraft: PIPER PA-30 TWIN COMANCHE
(PA30)
More flights by this aircraft type
Origin: CYNE Norway House
Canada
Destination: CYAV St Andrews
Canada
More flights between these airports :: More routes between these airports
Route: DCT
File this flight plan on PilotEdge
Remarks:
Altitude:
(Current/Filed)
16,000ft
Speed:
(Current/Filed)
150kts
Departed: 03-Jul-17 08:46 AM
Arrived: 03-Jul-17 10:16 AM
Distance/Time
Traveled:
236nm/1:30
Distance/Time
To Go:
Arrived

Flight Plot

Page will automatically refresh every two minutes.

Flight plan parsing failed; only flown route is shown


Map Options




Map Legend


Flown Route
Filed Route
Departure Airport
Arrival Airport
Navaid (VOR, NDB)
Fix

Horizontal Profiles

Position Reports

Time Latitude Longitude Heading Altitude Ground
Speed
03-Jul-17 08:46 53.959250 -97.845352 0 726ft 0kts
03-Jul-17 08:47 53.958907 -97.842513 61 725ft 16kts
03-Jul-17 08:48 53.960711 -97.836838 225 726ft 3kts
03-Jul-17 08:49 53.950360 -97.858741 186 1417ft 101kts
03-Jul-17 08:50 53.913366 -97.838536 170 2912ft 129kts
03-Jul-17 08:51 53.883965 -97.829078 173 3931ft 128kts
03-Jul-17 08:52 53.848505 -97.819608 179 5092ft 132kts
03-Jul-17 08:53 53.811099 -97.811167 178 6276ft 139kts
03-Jul-17 08:54 53.767292 -97.801074 179 7650ft 136kts
03-Jul-17 08:55 53.736664 -97.794107 181 8629ft 131kts
03-Jul-17 08:56 53.700666 -97.786106 182 9660ft 134kts
03-Jul-17 08:57 53.663287 -97.777758 182 10575ft 137kts
03-Jul-17 08:58 53.625560 -97.769262 182 11475ft 136kts
03-Jul-17 08:59 53.588641 -97.760971 183 12362ft 132kts
03-Jul-17 09:00 53.552973 -97.752984 184 13241ft 127kts
03-Jul-17 09:01 53.518276 -97.745377 184 13977ft 131kts
03-Jul-17 09:02 53.480720 -97.737122 183 14533ft 141kts
03-Jul-17 09:03 53.440971 -97.728241 183 15065ft 146kts
03-Jul-17 09:04 53.400524 -97.719222 183 15579ft 147kts
03-Jul-17 09:05 53.359993 -97.710255 184 16015ft 151kts
03-Jul-17 09:06 53.315048 -97.700503 182 16010ft 170kts
03-Jul-17 09:07 53.267482 -97.689893 182 16063ft 173kts
03-Jul-17 09:08 53.219054 -97.679242 182 16068ft 177kts
03-Jul-17 09:09 53.169996 -97.668508 181 15994ft 181kts
03-Jul-17 09:10 53.120354 -97.657604 181 15985ft 180kts
03-Jul-17 09:11 53.071043 -97.646842 182 15985ft 179kts
03-Jul-17 09:12 53.021585 -97.636081 182 15985ft 179kts
03-Jul-17 09:13 52.972321 -97.625384 182 15985ft 179kts
03-Jul-17 09:14 52.923123 -97.614725 182 15986ft 179kts
03-Jul-17 09:15 52.874303 -97.604173 182 15986ft 179kts
03-Jul-17 09:16 52.824968 -97.593535 182 15986ft 179kts
03-Jul-17 09:17 52.775650 -97.582922 182 15986ft 179kts
03-Jul-17 09:18 52.726428 -97.572436 180 15985ft 179kts
03-Jul-17 09:19 52.677079 -97.561796 180 15986ft 179kts
03-Jul-17 09:20 52.627971 -97.551291 180 15986ft 179kts
03-Jul-17 09:21 52.578713 -97.540786 180 15986ft 179kts
03-Jul-17 09:22 52.529393 -97.530468 181 15981ft 179kts
03-Jul-17 09:23 52.479773 -97.519741 180 15986ft 179kts
03-Jul-17 09:24 52.430470 -97.509315 180 15986ft 179kts
03-Jul-17 09:25 52.381357 -97.498940 180 15985ft 179kts
03-Jul-17 09:26 52.332032 -97.488535 180 15985ft 179kts
03-Jul-17 09:27 52.282736 -97.478166 180 15986ft 179kts
03-Jul-17 09:28 52.233316 -97.467793 180 15986ft 179kts
03-Jul-17 09:29 52.183954 -97.457429 180 15987ft 179kts
03-Jul-17 09:30 52.134583 -97.447131 180 15986ft 179kts
03-Jul-17 09:31 52.085118 -97.436825 180 15986ft 179kts
03-Jul-17 09:32 52.035822 -97.426571 180 15986ft 179kts
03-Jul-17 09:33 51.986455 -97.416325 180 15986ft 179kts
03-Jul-17 09:34 51.937161 -97.406116 180 15986ft 179kts
03-Jul-17 09:35 51.888359 -97.396129 180 15983ft 179kts
03-Jul-17 09:36 51.838717 -97.385766 180 15986ft 180kts
03-Jul-17 09:37 51.789176 -97.375602 180 15986ft 179kts
03-Jul-17 09:38 51.739756 -97.365463 180 15986ft 180kts
03-Jul-17 09:39 51.690274 -97.355329 180 15986ft 180kts
03-Jul-17 09:40 51.640885 -97.345230 181 15982ft 179kts
03-Jul-17 09:41 51.591793 -97.335217 181 15982ft 178kts
03-Jul-17 09:42 51.542630 -97.325217 181 15982ft 178kts
03-Jul-17 09:43 51.493649 -97.315276 181 15982ft 178kts
03-Jul-17 09:44 51.444223 -97.305218 181 15983ft 179kts
03-Jul-17 09:45 51.395082 -97.295319 181 15982ft 178kts
03-Jul-17 09:46 51.345875 -97.285401 181 15982ft 178kts
03-Jul-17 09:47 51.296733 -97.275511 181 15983ft 179kts
03-Jul-17 09:48 51.247417 -97.265606 181 15983ft 179kts
03-Jul-17 09:49 51.198146 -97.255732 181 15983ft 179kts
03-Jul-17 09:50 51.148772 -97.245858 181 15983ft 179kts
03-Jul-17 09:51 51.099480 -97.236023 181 15983ft 179kts
03-Jul-17 09:52 51.050070 -97.226185 181 15983ft 179kts
03-Jul-17 09:53 51.000549 -97.216313 181 15984ft 180kts
03-Jul-17 09:54 50.951025 -97.206515 181 15983ft 179kts
03-Jul-17 09:55 50.901514 -97.196728 181 15983ft 179kts
03-Jul-17 09:56 50.853861 -97.187319 181 15983ft 179kts
03-Jul-17 09:57 50.801259 -97.177188 179 15167ft 209kts
03-Jul-17 09:58 50.741166 -97.165329 178 13805ft 220kts
03-Jul-17 09:59 50.684765 -97.154055 178 12464ft 194kts
03-Jul-17 10:00 50.632597 -97.143906 177 11238ft 187kts
03-Jul-17 10:01 50.581375 -97.133968 176 10035ft 186kts
03-Jul-17 10:02 50.529965 -97.123903 175 8836ft 186kts
03-Jul-17 10:03 50.480070 -97.114047 177 7658ft 175kts
03-Jul-17 10:04 50.433772 -97.105468 171 6456ft 163kts
03-Jul-17 10:05 50.388495 -97.096473 169 5238ft 168kts
03-Jul-17 10:06 50.340564 -97.087047 171 4051ft 178kts
03-Jul-17 10:07 50.292448 -97.077875 170 3035ft 164kts
03-Jul-17 10:08 50.246537 -97.069031 171 3068ft 168kts
03-Jul-17 10:09 50.199879 -97.060108 171 3066ft 169kts
03-Jul-17 10:10 50.152445 -97.050964 173 3068ft 175kts
03-Jul-17 10:11 50.103849 -97.041724 173 3067ft 176kts
03-Jul-17 10:12 50.055279 -97.032450 173 3067ft 176kts
03-Jul-17 10:13 50.006906 -97.023017 173 3067ft 176kts
03-Jul-17 10:14 49.976029 -97.054067 288 3069ft 176kts
03-Jul-17 10:15 50.005583 -97.100532 332 3062ft 152kts
03-Jul-17 10:16 50.042374 -97.124683 39 2859ft 134kts
03-Jul-17 10:17 50.038115 -97.074572 93 1838ft 106kts
03-Jul-17 10:18 50.050872 -97.039306 11 840ft 93kts
03-Jul-17 10:19 50.060580 -97.038147 231 760ft 11kts
03-Jul-17 10:20 50.057803 -97.040418 278 760ft 12kts
03-Jul-17 10:21 50.058074 -97.041046 357 761ft 0kts
03-Jul-17 10:22 50.058074 -97.041046 357 761ft 0kts

Navigation Log

Ident Type
Flight plan parsing failed, navigation log unavailable